sensor_id;sensor_type;location;lat;lon;timestamp;temperature;humidity
29849;DHT22;16728;50.832;5.590;2023-06-05T01:05:05;16.90;99.90
29849;DHT22;16728;50.832;5.590;2023-06-05T02:19:01;15.80;99.90
29849;DHT22;16728;50.832;5.590;2023-06-05T02:39:41;15.60;99.90
29849;DHT22;16728;50.832;5.590;2023-06-05T02:42:56;15.60;99.90
29849;DHT22;16728;50.832;5.590;2023-06-05T03:31:25;15.20;99.90
29849;DHT22;16728;50.832;5.590;2023-06-05T10:18:23;21.00;94.90
29849;DHT22;16728;50.832;5.590;2023-06-05T13:08:07;22.70;85.40
29849;DHT22;16728;50.832;5.590;2023-06-05T13:11:11;22.90;85.60
29849;DHT22;16728;50.832;5.590;2023-06-05T13:14:20;22.90;86.10
29849;DHT22;16728;50.832;5.590;2023-06-05T13:17:22;22.90;86.70
29849;DHT22;16728;50.832;5.590;2023-06-05T13:20:25;22.90;86.70
29849;DHT22;16728;50.832;5.590;2023-06-05T13:23:27;22.90;84.80
29849;DHT22;16728;50.832;5.590;2023-06-05T13:26:30;23.00;85.20
29849;DHT22;16728;50.832;5.590;2023-06-05T13:29:32;23.00;85.00
29849;DHT22;16728;50.832;5.590;2023-06-05T13:32:36;23.00;84.60
29849;DHT22;16728;50.832;5.590;2023-06-05T15:20:28;23.40;78.60
29849;DHT22;16728;50.832;5.590;2023-06-05T15:23:32;23.40;77.10
29849;DHT22;16728;50.832;5.590;2023-06-05T15:26:34;23.40;77.70
29849;DHT22;16728;50.832;5.590;2023-06-05T15:29:36;23.40;77.30
29849;DHT22;16728;50.832;5.590;2023-06-05T15:32:38;23.50;77.90
29849;DHT22;16728;50.832;5.590;2023-06-05T15:35:40;23.50;77.80
29849;DHT22;16728;50.832;5.590;2023-06-05T15:38:44;23.50;76.70
29849;DHT22;16728;50.832;5.590;2023-06-05T15:41:46;23.50;76.90
29849;DHT22;16728;50.832;5.590;2023-06-05T15:44:51;23.50;77.80
29849;DHT22;16728;50.832;5.590;2023-06-05T15:47:53;23.50;76.80
29849;DHT22;16728;50.832;5.590;2023-06-05T15:50:56;23.50;77.10
29849;DHT22;16728;50.832;5.590;2023-06-05T15:53:59;23.50;78.40
29849;DHT22;16728;50.832;5.590;2023-06-05T15:57:21;23.60;77.90
29849;DHT22;16728;50.832;5.590;2023-06-05T16:00:24;23.60;77.50
29849;DHT22;16728;50.832;5.590;2023-06-05T16:03:28;23.60;78.50
29849;DHT22;16728;50.832;5.590;2023-06-05T16:06:30;23.60;78.50
29849;DHT22;16728;50.832;5.590;2023-06-05T16:09:33;23.60;78.10
29849;DHT22;16728;50.832;5.590;2023-06-05T16:12:35;23.60;79.10
29849;DHT22;16728;50.832;5.590;2023-06-05T16:15:38;23.60;78.80
29849;DHT22;16728;50.832;5.590;2023-06-05T16:18:42;23.50;78.70
29849;DHT22;16728;50.832;5.590;2023-06-05T16:21:50;23.50;78.50
29849;DHT22;16728;50.832;5.590;2023-06-05T16:24:52;23.50;79.00
29849;DHT22;16728;50.832;5.590;2023-06-05T16:27:54;23.50;79.50
29849;DHT22;16728;50.832;5.590;2023-06-05T16:30:56;23.60;79.00
29849;DHT22;16728;50.832;5.590;2023-06-05T16:34:08;23.60;80.00
29849;DHT22;16728;50.832;5.590;2023-06-05T18:17:55;23.20;85.00
29849;DHT22;16728;50.832;5.590;2023-06-05T18:21:06;23.20;85.40
29849;DHT22;16728;50.832;5.590;2023-06-05T18:24:14;23.10;85.30
29849;DHT22;16728;50.832;5.590;2023-06-05T18:27:17;23.10;86.00
29849;DHT22;16728;50.832;5.590;2023-06-05T18:30:19;23.00;86.10
29849;DHT22;16728;50.832;5.590;2023-06-05T18:33:21;23.00;87.40
29849;DHT22;16728;50.832;5.590;2023-06-05T18:36:23;22.90;87.50
29849;DHT22;16728;50.832;5.590;2023-06-05T18:39:26;22.90;87.80
29849;DHT22;16728;50.832;5.590;2023-06-05T18:42:27;22.80;87.60
29849;DHT22;16728;50.832;5.590;2023-06-05T18:45:29;22.80;87.60
29849;DHT22;16728;50.832;5.590;2023-06-05T20:51:43;20.30;95.20
29849;DHT22;16728;50.832;5.590;2023-06-05T20:54:46;20.20;95.80
29849;DHT22;16728;50.832;5.590;2023-06-05T20:57:49;20.10;96.30
29849;DHT22;16728;50.832;5.590;2023-06-05T21:00:52;20.10;96.80
29849;DHT22;16728;50.832;5.590;2023-06-05T22:50:17;18.30;99.90
29849;DHT22;16728;50.832;5.590;2023-06-05T22:53:22;18.20;99.90
29849;DHT22;16728;50.832;5.590;2023-06-05T22:56:24;18.10;99.90
29849;DHT22;16728;50.832;5.590;2023-06-05T22:59:26;18.00;99.90
